sensor_id;sensor_type;location;lat;lon;timestamp;pressure;altitude;pressure_sealevel;temperature;humidity
75551;BME280;65071;53.082;18.218;2022-12-13T00:01:56;100327.95;;;0.15;79.26
75551;BME280;65071;53.082;18.218;2022-12-13T00:04:24;100325.77;;;0.16;79.30
75551;BME280;65071;53.082;18.218;2022-12-13T00:06:51;100326.39;;;0.14;79.26
75551;BME280;65071;53.082;18.218;2022-12-13T00:09:20;100327.95;;;0.09;79.30
75551;BME280;65071;53.082;18.218;2022-12-13T00:11:47;100328.54;;;0.06;79.27
75551;BME280;65071;53.082;18.218;2022-12-13T00:14:15;100325.19;;;0.03;79.12
75551;BME280;65071;53.082;18.218;2022-12-13T00:16:47;100328.12;;;0.01;79.17
75551;BME280;65071;53.082;18.218;2022-12-13T00:19:15;100327.79;;;0.07;79.13
75551;BME280;65071;53.082;18.218;2022-12-13T00:21:42;100332.95;;;0.08;78.92
75551;BME280;65071;53.082;18.218;2022-12-13T00:24:08;100334.08;;;0.10;78.96
75551;BME280;65071;53.082;18.218;2022-12-13T00:26:35;100333.41;;;0.10;78.96
75551;BME280;65071;53.082;18.218;2022-12-13T00:29:04;100338.11;;;0.05;78.77
75551;BME280;65071;53.082;18.218;2022-12-13T00:31:31;100340.80;;;0.02;78.80
75551;BME280;65071;53.082;18.218;2022-12-13T00:33:58;100348.42;;;0.01;78.72
75551;BME280;65071;53.082;18.218;2022-12-13T00:36:25;100343.38;;;0.03;78.81
75551;BME280;65071;53.082;18.218;2022-12-13T00:38:52;100350.01;;;0.01;78.90
75551;BME280;65071;53.082;18.218;2022-12-13T00:41:34;100350.38;;;-0.02;78.40
75551;BME280;65071;53.082;18.218;2022-12-13T00:44:02;100356.20;;;-0.07;78.51
75551;BME280;65071;53.082;18.218;2022-12-13T00:46:30;100359.02;;;-0.13;78.59
75551;BME280;65071;53.082;18.218;2022-12-13T00:48:59;100356.93;;;-0.16;78.37
75551;BME280;65071;53.082;18.218;2022-12-13T00:51:27;100357.23;;;-0.12;78.48
75551;BME280;65071;53.082;18.218;2022-12-13T00:53:55;100356.50;;;-0.17;78.25
75551;BME280;65071;53.082;18.218;2022-12-13T00:56:23;100355.89;;;-0.22;78.43
75551;BME280;65071;53.082;18.218;2022-12-13T00:58:51;100358.23;;;-0.25;78.23
75551;BME280;65071;53.082;18.218;2022-12-13T01:01:22;100353.66;;;-0.28;77.79
75551;BME280;65071;53.082;18.218;2022-12-13T01:03:51;100360.65;;;-0.30;78.17
75551;BME280;65071;53.082;18.218;2022-12-13T01:06:26;100357.56;;;-0.26;78.13
75551;BME280;65071;53.082;18.218;2022-12-13T01:08:53;100358.37;;;-0.28;77.89
75551;BME280;65071;53.082;18.218;2022-12-13T01:11:20;100361.52;;;-0.32;77.83
75551;BME280;65071;53.082;18.218;2022-12-13T01:13:46;100359.98;;;-0.36;77.84
75551;BME280;65071;53.082;18.218;2022-12-13T01:16:13;100364.23;;;-0.42;77.61
75551;BME280;65071;53.082;18.218;2022-12-13T01:18:40;100361.83;;;-0.46;77.39
75551;BME280;65071;53.082;18.218;2022-12-13T01:21:11;100358.25;;;-0.48;77.52
75551;BME280;65071;53.082;18.218;2022-12-13T01:23:38;100361.61;;;-0.45;77.22
75551;BME280;65071;53.082;18.218;2022-12-13T01:26:07;100365.73;;;-0.49;77.51
75551;BME280;65071;53.082;18.218;2022-12-13T01:28:35;100370.33;;;-0.52;77.30
75551;BME280;65071;53.082;18.218;2022-12-13T01:31:04;100369.48;;;-0.55;77.43
75551;BME280;65071;53.082;18.218;2022-12-13T01:33:32;100363.44;;;-0.61;77.44
75551;BME280;65071;53.082;18.218;2022-12-13T01:36:00;100362.19;;;-0.60;77.77
75551;BME280;65071;53.082;18.218;2022-12-13T01:38:27;100363.92;;;-0.57;77.55
75551;BME280;65071;53.082;18.218;2022-12-13T01:40:54;100356.73;;;-0.49;77.63
75551;BME280;65071;53.082;18.218;2022-12-13T01:43:48;100360.27;;;-0.46;77.51
75551;BME280;65071;53.082;18.218;2022-12-13T01:46:16;100356.00;;;-0.46;77.43
75551;BME280;65071;53.082;18.218;2022-12-13T01:48:54;100352.76;;;-0.45;77.56
75551;BME280;65071;53.082;18.218;2022-12-13T01:51:27;100358.70;;;-0.41;77.26
75551;BME280;65071;53.082;18.218;2022-12-13T01:53:58;100361.46;;;-0.40;77.03
75551;BME280;65071;53.082;18.218;2022-12-13T01:56:31;100359.79;;;-0.33;77.03
75551;BME280;65071;53.082;18.218;2022-12-13T01:59:01;100366.95;;;-0.40;76.74
75551;BME280;65071;53.082;18.218;2022-12-13T02:01:30;100368.15;;;-0.46;76.75
75551;BME280;65071;53.082;18.218;2022-12-13T02:03:56;100371.03;;;-0.49;76.90
75551;BME280;65071;53.082;18.218;2022-12-13T02:06:43;100379.85;;;-0.52;76.76
75551;BME280;65071;53.082;18.218;2022-12-13T02:09:11;100377.16;;;-0.46;76.88
75551;BME280;65071;53.082;18.218;2022-12-13T02:11:41;100375.95;;;-0.40;76.57
75551;BME280;65071;53.082;18.218;2022-12-13T02:14:09;100374.85;;;-0.48;76.69
75551;BME280;65071;53.082;18.218;2022-12-13T02:16:48;100376.36;;;-0.53;76.52
75551;BME280;65071;53.082;18.218;2022-12-13T02:22:39;100377.67;;;-0.65;76.32
75551;BME280;65071;53.082;18.218;2022-12-13T02:27:59;100380.30;;;-0.68;76.11
75551;BME280;65071;53.082;18.218;2022-12-13T02:30:46;100381.32;;;-0.76;76.41
75551;BME280;65071;53.082;18.218;2022-12-13T02:33:19;100378.16;;;-0.85;76.35
75551;BME280;65071;53.082;18.218;2022-12-13T02:36:08;100380.19;;;-0.93;76.14
75551;BME280;65071;53.082;18.218;2022-12-13T02:38:55;100381.98;;;-0.99;76.15
75551;BME280;65071;53.082;18.218;2022-12-13T02:41:38;100385.55;;;-0.97;76.30
75551;BME280;65071;53.082;18.218;2022-12-13T02:44:16;100389.83;;;-0.92;76.16
75551;BME280;65071;53.082;18.218;2022-12-13T02:46:48;100391.73;;;-0.85;76.34
75551;BME280;65071;53.082;18.218;2022-12-13T02:49:19;100390.73;;;-0.86;76.28
75551;BME280;65071;53.082;18.218;2022-12-13T02:51:50;100390.40;;;-0.84;75.89
75551;BME280;65071;53.082;18.218;2022-12-13T02:54:17;100391.91;;;-0.85;75.84
75551;BME280;65071;53.082;18.218;2022-12-13T02:56:59;100395.27;;;-0.88;75.94
75551;BME280;65071;53.082;18.218;2022-12-13T02:59:35;100395.08;;;-0.88;75.65
75551;BME280;65071;53.082;18.218;2022-12-13T03:02:14;100400.02;;;-0.85;75.89
75551;BME280;65071;53.082;18.218;2022-12-13T03:04:56;100398.02;;;-0.84;75.76
75551;BME280;65071;53.082;18.218;2022-12-13T03:08:07;100404.31;;;-0.86;75.72
75551;BME280;65071;53.082;18.218;2022-12-13T03:10:46;100407.13;;;-0.89;75.77
75551;BME280;65071;53.082;18.218;2022-12-13T03:13:25;100409.70;;;-0.96;75.59
75551;BME280;65071;53.082;18.218;2022-12-13T03:18:54;100412.31;;;-1.05;75.75
75551;BME280;65071;53.082;18.218;2022-12-13T03:21:23;100413.48;;;-1.13;75.73
75551;BME280;65071;53.082;18.218;2022-12-13T03:23:50;100412.02;;;-1.15;75.64
75551;BME280;65071;53.082;18.218;2022-12-13T03:26:20;100412.34;;;-1.23;76.00
75551;BME280;65071;53.082;18.218;2022-12-13T03:28:47;100411.46;;;-1.29;75.97
75551;BME280;65071;53.082;18.218;2022-12-13T03:31:14;100410.55;;;-1.32;75.70
75551;BME280;65071;53.082;18.218;2022-12-13T03:33:41;100409.19;;;-1.33;75.82
75551;BME280;65071;53.082;18.218;2022-12-13T03:36:08;100411.18;;;-1.31;75.94
75551;BME280;65071;53.082;18.218;2022-12-13T03:38:35;100410.30;;;-1.34;75.90
75551;BME280;65071;53.082;18.218;2022-12-13T03:41:06;100407.23;;;-1.42;76.11
75551;BME280;65071;53.082;18.218;2022-12-13T03:43:34;100408.73;;;-1.47;76.04
75551;BME280;65071;53.082;18.218;2022-12-13T03:46:01;100409.69;;;-1.51;75.87
75551;BME280;65071;53.082;18.218;2022-12-13T03:48:28;100409.52;;;-1.54;75.96
75551;BME280;65071;53.082;18.218;2022-12-13T03:50:55;100409.15;;;-1.61;76.11
75551;BME280;65071;53.082;18.218;2022-12-13T03:53:22;100409.38;;;-1.58;76.21
75551;BME280;65071;53.082;18.218;2022-12-13T03:55:49;100409.26;;;-1.56;76.03
75551;BME280;65071;53.082;18.218;2022-12-13T03:58:16;100406.75;;;-1.55;76.15
75551;BME280;65071;53.082;18.218;2022-12-13T04:00:44;100407.50;;;-1.59;76.08
75551;BME280;65071;53.082;18.218;2022-12-13T04:03:10;100412.35;;;-1.67;76.15
75551;BME280;65071;53.082;18.218;2022-12-13T04:05:37;100412.86;;;-1.79;76.42
75551;BME280;65071;53.082;18.218;2022-12-13T04:08:04;100412.55;;;-1.90;76.30
75551;BME280;65071;53.082;18.218;2022-12-13T04:10:31;100416.19;;;-1.98;76.63
75551;BME280;65071;53.082;18.218;2022-12-13T04:12:58;100414.25;;;-2.01;76.73
75551;BME280;65071;53.082;18.218;2022-12-13T04:15:43;100415.72;;;-2.02;76.77
75551;BME280;65071;53.082;18.218;2022-12-13T04:18:17;100415.48;;;-1.98;76.82
75551;BME280;65071;53.082;18.218;2022-12-13T04:20:45;100415.60;;;-2.03;76.79
75551;BME280;65071;53.082;18.218;2022-12-13T04:23:12;100417.10;;;-2.15;77.27
75551;BME280;65071;53.082;18.218;2022-12-13T04:25:40;100415.68;;;-2.18;76.96
75551;BME280;65071;53.082;18.218;2022-12-13T04:28:06;100414.14;;;-2.23;76.88
75551;BME280;65071;53.082;18.218;2022-12-13T04:30:33;100416.76;;;-2.29;77.60
75551;BME280;65071;53.082;18.218;2022-12-13T04:33:01;100416.55;;;-2.24;77.26
75551;BME280;65071;53.082;18.218;2022-12-13T04:35:27;100420.84;;;-2.29;77.41
75551;BME280;65071;53.082;18.218;2022-12-13T04:37:54;100426.73;;;-2.34;77.59
75551;BME280;65071;53.082;18.218;2022-12-13T04:40:23;100425.35;;;-2.31;77.58
75551;BME280;65071;53.082;18.218;2022-12-13T04:42:49;100425.34;;;-2.31;77.37
75551;BME280;65071;53.082;18.218;2022-12-13T04:45:17;100425.85;;;-2.27;77.30
75551;BME280;65071;53.082;18.218;2022-12-13T04:47:43;100416.65;;;-2.16;77.27
75551;BME280;65071;53.082;18.218;2022-12-13T04:50:10;100419.66;;;-2.10;77.19
75551;BME280;65071;53.082;18.218;2022-12-13T04:52:37;100423.52;;;-2.07;77.06
75551;BME280;65071;53.082;18.218;2022-12-13T04:55:05;100427.70;;;-2.09;77.16
75551;BME280;65071;53.082;18.218;2022-12-13T04:57:33;100423.92;;;-2.11;77.10
75551;BME280;65071;53.082;18.218;2022-12-13T05:00:00;100427.20;;;-2.13;77.04
75551;BME280;65071;53.082;18.218;2022-12-13T05:02:26;100425.73;;;-2.08;77.19
75551;BME280;65071;53.082;18.218;2022-12-13T05:04:53;100426.86;;;-2.03;77.40
75551;BME280;65071;53.082;18.218;2022-12-13T05:07:20;100427.33;;;-2.02;77.12
75551;BME280;65071;53.082;18.218;2022-12-13T05:09:48;100427.91;;;-2.00;76.98
75551;BME280;65071;53.082;18.218;2022-12-13T05:12:14;100426.33;;;-2.03;77.10
75551;BME280;65071;53.082;18.218;2022-12-13T05:14:41;100432.39;;;-2.04;76.97
75551;BME280;65071;53.082;18.218;2022-12-13T05:17:07;100427.80;;;-2.01;77.08
75551;BME280;65071;53.082;18.218;2022-12-13T05:19:34;100426.77;;;-1.98;77.25
75551;BME280;65071;53.082;18.218;2022-12-13T05:22:00;100428.10;;;-1.97;77.28
75551;BME280;65071;53.082;18.218;2022-12-13T05:24:28;100429.06;;;-1.99;77.30
75551;BME280;65071;53.082;18.218;2022-12-13T05:26:56;100428.28;;;-2.00;77.22
75551;BME280;65071;53.082;18.218;2022-12-13T05:29:23;100422.88;;;-2.08;76.99
75551;BME280;65071;53.082;18.218;2022-12-13T05:31:51;100427.21;;;-2.20;77.18
75551;BME280;65071;53.082;18.218;2022-12-13T05:34:18;100432.27;;;-2.29;77.34
75551;BME280;65071;53.082;18.218;2022-12-13T05:36:44;100435.20;;;-2.28;77.64
75551;BME280;65071;53.082;18.218;2022-12-13T05:39:11;100441.38;;;-2.25;77.55
75551;BME280;65071;53.082;18.218;2022-12-13T05:41:38;100445.04;;;-2.24;77.82
75551;BME280;65071;53.082;18.218;2022-12-13T05:44:04;100445.33;;;-2.23;77.95
75551;BME280;65071;53.082;18.218;2022-12-13T05:46:31;100444.59;;;-2.18;77.56
75551;BME280;65071;53.082;18.218;2022-12-13T05:48:57;100444.20;;;-2.17;77.70
75551;BME280;65071;53.082;18.218;2022-12-13T05:51:24;100446.71;;;-2.15;77.61
75551;BME280;65071;53.082;18.218;2022-12-13T05:53:51;100446.02;;;-2.09;77.56
75551;BME280;65071;53.082;18.218;2022-12-13T05:56:17;100449.70;;;-2.11;77.54
75551;BME280;65071;53.082;18.218;2022-12-13T05:58:44;100450.89;;;-2.18;77.31
75551;BME280;65071;53.082;18.218;2022-12-13T06:01:13;100450.38;;;-2.25;77.44
75551;BME280;65071;53.082;18.218;2022-12-13T06:03:40;100451.42;;;-2.35;77.69
75551;BME280;65071;53.082;18.218;2022-12-13T06:06:09;100451.04;;;-2.44;77.52
75551;BME280;65071;53.082;18.218;2022-12-13T06:08:36;100453.69;;;-2.58;77.74
75551;BME280;65071;53.082;18.218;2022-12-13T06:11:04;100455.88;;;-2.62;78.13
75551;BME280;65071;53.082;18.218;2022-12-13T06:13:31;100455.87;;;-2.66;77.79
75551;BME280;65071;53.082;18.218;2022-12-13T06:16:03;100462.23;;;-2.73;78.27
75551;BME280;65071;53.082;18.218;2022-12-13T06:18:33;100463.86;;;-2.74;78.50
75551;BME280;65071;53.082;18.218;2022-12-13T06:21:03;100465.88;;;-2.72;78.58
75551;BME280;65071;53.082;18.218;2022-12-13T06:23:31;100467.92;;;-2.71;78.40
75551;BME280;65071;53.082;18.218;2022-12-13T06:25:58;100466.52;;;-2.71;78.34
75551;BME280;65071;53.082;18.218;2022-12-13T06:28:24;100470.42;;;-2.72;78.40
75551;BME280;65071;53.082;18.218;2022-12-13T06:30:51;100472.50;;;-2.71;78.10
75551;BME280;65071;53.082;18.218;2022-12-13T06:33:18;100471.66;;;-2.72;78.12
75551;BME280;65071;53.082;18.218;2022-12-13T06:35:45;100476.62;;;-2.69;77.86
75551;BME280;65071;53.082;18.218;2022-12-13T06:38:12;100478.26;;;-2.59;78.15
75551;BME280;65071;53.082;18.218;2022-12-13T06:40:39;100485.40;;;-2.58;78.54
75551;BME280;65071;53.082;18.218;2022-12-13T06:43:05;100486.11;;;-2.58;78.45
75551;BME280;65071;53.082;18.218;2022-12-13T06:45:32;100488.17;;;-2.57;78.16
75551;BME280;65071;53.082;18.218;2022-12-13T06:47:59;100489.27;;;-2.62;78.54
75551;BME280;65071;53.082;18.218;2022-12-13T06:50:25;100494.28;;;-2.63;78.42
75551;BME280;65071;53.082;18.218;2022-12-13T06:52:52;100492.96;;;-2.65;77.85
75551;BME280;65071;53.082;18.218;2022-12-13T06:55:18;100496.55;;;-2.63;78.35
75551;BME280;65071;53.082;18.218;2022-12-13T06:57:45;100498.09;;;-2.52;78.42
75551;BME280;65071;53.082;18.218;2022-12-13T07:00:12;100498.13;;;-2.46;78.56
75551;BME280;65071;53.082;18.218;2022-12-13T07:02:39;100506.08;;;-2.49;78.56
75551;BME280;65071;53.082;18.218;2022-12-13T07:05:06;100510.36;;;-2.50;78.56
75551;BME280;65071;53.082;18.218;2022-12-13T07:07:34;100513.58;;;-2.51;78.22
75551;BME280;65071;53.082;18.218;2022-12-13T07:10:00;100512.48;;;-2.51;78.73
75551;BME280;65071;53.082;18.218;2022-12-13T07:12:27;100512.21;;;-2.49;78.54
75551;BME280;65071;53.082;18.218;2022-12-13T07:14:54;100514.94;;;-2.47;78.28
75551;BME280;65071;53.082;18.218;2022-12-13T07:17:21;100513.44;;;-2.39;77.80
75551;BME280;65071;53.082;18.218;2022-12-13T07:19:48;100513.27;;;-2.32;78.15
75551;BME280;65071;53.082;18.218;2022-12-13T07:22:14;100512.58;;;-2.22;78.10
75551;BME280;65071;53.082;18.218;2022-12-13T07:24:41;100509.18;;;-2.14;77.77
75551;BME280;65071;53.082;18.218;2022-12-13T07:27:08;100513.13;;;-2.16;77.75
75551;BME280;65071;53.082;18.218;2022-12-13T07:29:36;100513.94;;;-2.14;77.31
75551;BME280;65071;53.082;18.218;2022-12-13T07:32:02;100512.31;;;-2.10;77.09
75551;BME280;65071;53.082;18.218;2022-12-13T07:34:29;100514.59;;;-2.06;76.78
75551;BME280;65071;53.082;18.218;2022-12-13T07:36:56;100516.32;;;-2.06;76.74
75551;BME280;65071;53.082;18.218;2022-12-13T07:39:23;100514.52;;;-2.02;76.84
75551;BME280;65071;53.082;18.218;2022-12-13T07:41:54;100516.20;;;-2.03;77.04
75551;BME280;65071;53.082;18.218;2022-12-13T07:44:22;100514.72;;;-2.05;77.18
75551;BME280;65071;53.082;18.218;2022-12-13T07:46:49;100514.52;;;-2.08;77.31
75551;BME280;65071;53.082;18.218;2022-12-13T07:49:15;100522.99;;;-2.09;76.95
75551;BME280;65071;53.082;18.218;2022-12-13T07:51:42;100528.10;;;-2.12;77.05
75551;BME280;65071;53.082;18.218;2022-12-13T07:54:09;100527.80;;;-2.13;77.03
75551;BME280;65071;53.082;18.218;2022-12-13T07:56:36;100530.98;;;-2.13;77.20
75551;BME280;65071;53.082;18.218;2022-12-13T07:59:02;100537.19;;;-2.10;77.08
75551;BME280;65071;53.082;18.218;2022-12-13T08:01:33;100531.94;;;-2.05;77.05
75551;BME280;65071;53.082;18.218;2022-12-13T08:04:01;100531.55;;;-1.97;77.07
75551;BME280;65071;53.082;18.218;2022-12-13T08:06:34;100535.42;;;-1.91;77.02
75551;BME280;65071;53.082;18.218;2022-12-13T08:09:01;100540.48;;;-1.90;77.24
75551;BME280;65071;53.082;18.218;2022-12-13T08:11:28;100541.25;;;-1.84;76.86
75551;BME280;65071;53.082;18.218;2022-12-13T08:13:55;100535.90;;;-1.80;76.99
75551;BME280;65071;53.082;18.218;2022-12-13T08:16:22;100538.13;;;-1.75;76.83
75551;BME280;65071;53.082;18.218;2022-12-13T08:18:48;100544.51;;;-1.69;77.01
75551;BME280;65071;53.082;18.218;2022-12-13T08:21:15;100544.00;;;-1.63;76.86
75551;BME280;65071;53.082;18.218;2022-12-13T08:23:41;100544.30;;;-1.46;76.69
75551;BME280;65071;53.082;18.218;2022-12-13T08:26:08;100548.61;;;-1.34;76.65
75551;BME280;65071;53.082;18.218;2022-12-13T08:28:35;100549.64;;;-1.27;76.39
75551;BME280;65071;53.082;18.218;2022-12-13T08:31:09;100552.02;;;-1.26;76.70
75551;BME280;65071;53.082;18.218;2022-12-13T08:33:39;100551.75;;;-1.21;76.32
75551;BME280;65071;53.082;18.218;2022-12-13T08:36:13;100553.34;;;-1.18;75.85
75551;BME280;65071;53.082;18.218;2022-12-13T08:38:44;100556.59;;;-1.16;75.84
75551;BME280;65071;53.082;18.218;2022-12-13T08:41:12;100559.13;;;-1.11;75.96
75551;BME280;65071;53.082;18.218;2022-12-13T08:43:40;100560.67;;;-0.94;76.11
75551;BME280;65071;53.082;18.218;2022-12-13T08:46:06;100563.52;;;-0.98;75.32
75551;BME280;65071;53.082;18.218;2022-12-13T08:48:33;100568.24;;;-0.97;75.18
75551;BME280;65071;53.082;18.218;2022-12-13T08:51:01;100570.10;;;-0.96;75.61
75551;BME280;65071;53.082;18.218;2022-12-13T08:53:28;100569.46;;;-0.91;75.14
75551;BME280;65071;53.082;18.218;2022-12-13T08:56:04;100570.05;;;-0.92;75.27
75551;BME280;65071;53.082;18.218;2022-12-13T08:58:30;100573.61;;;-0.80;75.15
75551;BME280;65071;53.082;18.218;2022-12-13T09:00:57;100568.81;;;-0.76;75.17
75551;BME280;65071;53.082;18.218;2022-12-13T09:03:24;100574.29;;;-0.76;75.19
75551;BME280;65071;53.082;18.218;2022-12-13T09:05:50;100570.04;;;-0.76;75.17
75551;BME280;65071;53.082;18.218;2022-12-13T09:08:17;100572.14;;;-0.73;74.93
75551;BME280;65071;53.082;18.218;2022-12-13T09:10:44;100569.66;;;-0.66;75.06
75551;BME280;65071;53.082;18.218;2022-12-13T09:13:11;100567.88;;;-0.57;74.83
75551;BME280;65071;53.082;18.218;2022-12-13T09:15:39;100567.69;;;-0.41;74.65
75551;BME280;65071;53.082;18.218;2022-12-13T09:18:06;100575.95;;;-0.32;73.89
75551;BME280;65071;53.082;18.218;2022-12-13T09:20:33;100577.11;;;-0.27;74.10
75551;BME280;65071;53.082;18.218;2022-12-13T09:23:03;100576.41;;;-0.21;73.92
75551;BME280;65071;53.082;18.218;2022-12-13T09:25:30;100578.41;;;-0.17;74.12
75551;BME280;65071;53.082;18.218;2022-12-13T09:27:58;100578.88;;;-0.10;73.60
75551;BME280;65071;53.082;18.218;2022-12-13T09:30:27;100578.70;;;-0.04;73.57
75551;BME280;65071;53.082;18.218;2022-12-13T09:32:54;100570.45;;;0.10;73.74
75551;BME280;65071;53.082;18.218;2022-12-13T09:35:21;100574.84;;;0.25;73.23
75551;BME280;65071;53.082;18.218;2022-12-13T09:37:48;100575.94;;;0.33;73.81
75551;BME280;65071;53.082;18.218;2022-12-13T09:40:21;100576.40;;;0.31;72.75
75551;BME280;65071;53.082;18.218;2022-12-13T09:42:52;100577.98;;;0.32;72.81
75551;BME280;65071;53.082;18.218;2022-12-13T09:45:20;100579.54;;;0.41;72.55
75551;BME280;65071;53.082;18.218;2022-12-13T09:47:47;100583.79;;;0.55;72.00
75551;BME280;65071;53.082;18.218;2022-12-13T09:50:22;100579.48;;;0.64;71.84
75551;BME280;65071;53.082;18.218;2022-12-13T09:52:51;100582.71;;;0.70;71.73
75551;BME280;65071;53.082;18.218;2022-12-13T09:55:25;100580.41;;;0.84;71.73
75551;BME280;65071;53.082;18.218;2022-12-13T09:57:57;100577.48;;;0.91;71.27
75551;BME280;65071;53.082;18.218;2022-12-13T10:00:27;100579.02;;;0.86;71.12
75551;BME280;65071;53.082;18.218;2022-12-13T10:02:58;100579.55;;;0.86;70.82
75551;BME280;65071;53.082;18.218;2022-12-13T10:05:35;100578.15;;;0.83;70.68
75551;BME280;65071;53.082;18.218;2022-12-13T10:08:20;100581.71;;;0.80;69.91
75551;BME280;65071;53.082;18.218;2022-12-13T10:10:49;100580.70;;;0.87;70.36
75551;BME280;65071;53.082;18.218;2022-12-13T10:13:22;100580.71;;;0.98;70.32
75551;BME280;65071;53.082;18.218;2022-12-13T10:16:07;100579.61;;;1.10;69.93
75551;BME280;65071;53.082;18.218;2022-12-13T10:18:38;100581.14;;;1.27;70.37
75551;BME280;65071;53.082;18.218;2022-12-13T10:21:24;100583.77;;;1.58;70.07
75551;BME280;65071;53.082;18.218;2022-12-13T10:24:16;100587.98;;;1.84;68.88
75551;BME280;65071;53.082;18.218;2022-12-13T10:26:44;100591.02;;;1.92;68.91
75551;BME280;65071;53.082;18.218;2022-12-13T10:29:11;100587.98;;;2.05;68.50
75551;BME280;65071;53.082;18.218;2022-12-13T10:31:49;100587.27;;;2.11;68.92
75551;BME280;65071;53.082;18.218;2022-12-13T10:34:29;100589.81;;;2.12;68.12
75551;BME280;65071;53.082;18.218;2022-12-13T10:39:50;100590.14;;;1.79;67.11
75551;BME280;65071;53.082;18.218;2022-12-13T10:42:19;100592.92;;;1.64;67.29
75551;BME280;65071;53.082;18.218;2022-12-13T10:44:46;100594.83;;;1.37;66.76
75551;BME280;65071;53.082;18.218;2022-12-13T10:47:21;100599.59;;;1.16;66.91
75551;BME280;65071;53.082;18.218;2022-12-13T10:49:56;100599.20;;;1.00;67.72
75551;BME280;65071;53.082;18.218;2022-12-13T10:52:29;100597.34;;;0.93;67.57
75551;BME280;65071;53.082;18.218;2022-12-13T10:55:01;100598.02;;;0.91;67.95
75551;BME280;65071;53.082;18.218;2022-12-13T10:57:29;100594.89;;;0.95;68.14
75551;BME280;65071;53.082;18.218;2022-12-13T10:59:56;100591.70;;;0.98;68.57
75551;BME280;65071;53.082;18.218;2022-12-13T11:02:34;100594.02;;;1.06;68.17
75551;BME280;65071;53.082;18.218;2022-12-13T11:07:51;100594.61;;;1.11;67.45
75551;BME280;65071;53.082;18.218;2022-12-13T11:10:26;100595.46;;;1.14;67.50
75551;BME280;65071;53.082;18.218;2022-12-13T11:13:04;100595.95;;;1.12;67.33
75551;BME280;65071;53.082;18.218;2022-12-13T11:15:33;100596.87;;;1.11;67.04
75551;BME280;65071;53.082;18.218;2022-12-13T11:18:07;100596.55;;;1.19;67.36
75551;BME280;65071;53.082;18.218;2022-12-13T11:20:56;100596.23;;;1.37;66.12
75551;BME280;65071;53.082;18.218;2022-12-13T11:23:36;100594.48;;;1.35;66.18
75551;BME280;65071;53.082;18.218;2022-12-13T11:26:09;100600.23;;;1.39;67.12
75551;BME280;65071;53.082;18.218;2022-12-13T11:31:26;100599.25;;;1.54;66.58
75551;BME280;65071;53.082;18.218;2022-12-13T11:34:17;100602.46;;;1.51;66.58
75551;BME280;65071;53.082;18.218;2022-12-13T11:36:57;100603.38;;;1.48;66.29
75551;BME280;65071;53.082;18.218;2022-12-13T11:39:33;100603.80;;;1.43;65.14
75551;BME280;65071;53.082;18.218;2022-12-13T11:45:26;100602.15;;;1.36;65.82
75551;BME280;65071;53.082;18.218;2022-12-13T11:50:38;100607.64;;;1.34;65.71
75551;BME280;65071;53.082;18.218;2022-12-13T11:55:53;100614.17;;;1.34;65.49
75551;BME280;65071;53.082;18.218;2022-12-13T11:58:44;100613.66;;;1.28;65.96
75551;BME280;65071;53.082;18.218;2022-12-13T12:01:21;100618.49;;;1.22;65.82
75551;BME280;65071;53.082;18.218;2022-12-13T12:04:25;100620.42;;;1.22;66.38
75551;BME280;65071;53.082;18.218;2022-12-13T12:06:59;100623.44;;;1.31;66.19
75551;BME280;65071;53.082;18.218;2022-12-13T12:09:30;100621.17;;;1.35;65.96
75551;BME280;65071;53.082;18.218;2022-12-13T12:12:34;100620.06;;;1.39;65.99
75551;BME280;65071;53.082;18.218;2022-12-13T12:15:12;100624.35;;;1.27;65.01
75551;BME280;65071;53.082;18.218;2022-12-13T12:17:40;100627.63;;;1.23;65.59
75551;BME280;65071;53.082;18.218;2022-12-13T12:20:16;100628.79;;;1.24;65.47
75551;BME280;65071;53.082;18.218;2022-12-13T12:25:45;100630.41;;;1.32;65.76
75551;BME280;65071;53.082;18.218;2022-12-13T12:31:23;100628.52;;;1.62;65.60
75551;BME280;65071;53.082;18.218;2022-12-13T12:39:33;100632.20;;;1.67;65.02
75551;BME280;65071;53.082;18.218;2022-12-13T12:47:28;100636.41;;;1.66;64.71
75551;BME280;65071;53.082;18.218;2022-12-13T12:50:28;100641.14;;;1.61;64.39
75551;BME280;65071;53.082;18.218;2022-12-13T12:53:05;100645.70;;;1.56;64.60
75551;BME280;65071;53.082;18.218;2022-12-13T12:55:59;100650.80;;;1.46;63.83
75551;BME280;65071;53.082;18.218;2022-12-13T12:58:45;100649.40;;;1.40;64.69
75551;BME280;65071;53.082;18.218;2022-12-13T13:01:42;100651.28;;;1.47;64.47
75551;BME280;65071;53.082;18.218;2022-12-13T13:04:13;100648.59;;;1.58;64.29
75551;BME280;65071;53.082;18.218;2022-12-13T13:06:47;100649.89;;;1.71;64.40
75551;BME280;65071;53.082;18.218;2022-12-13T13:09:16;100650.11;;;1.81;64.75
75551;BME280;65071;53.082;18.218;2022-12-13T13:11:45;100648.89;;;1.86;64.45
75551;BME280;65071;53.082;18.218;2022-12-13T13:14:27;100658.81;;;1.81;64.04
75551;BME280;65071;53.082;18.218;2022-12-13T13:16:57;100658.05;;;1.81;63.34
75551;BME280;65071;53.082;18.218;2022-12-13T13:21:57;100659.35;;;1.80;63.54
75551;BME280;65071;53.082;18.218;2022-12-13T13:24:31;100663.85;;;1.66;63.41
75551;BME280;65071;53.082;18.218;2022-12-13T13:29:35;100667.44;;;1.40;64.43
75551;BME280;65071;53.082;18.218;2022-12-13T13:34:39;100675.39;;;1.22;64.57
75551;BME280;65071;53.082;18.218;2022-12-13T13:42:30;100679.73;;;0.83;64.87
75551;BME280;65071;53.082;18.218;2022-12-13T13:56:16;100690.05;;;0.45;65.99
75551;BME280;65071;53.082;18.218;2022-12-13T14:01:55;100699.05;;;0.28;65.90
75551;BME280;65071;53.082;18.218;2022-12-13T14:04:37;100706.27;;;0.10;65.91
75551;BME280;65071;53.082;18.218;2022-12-13T14:13:02;100712.39;;;-0.38;66.48
75551;BME280;65071;53.082;18.218;2022-12-13T14:24:41;100719.42;;;-0.96;67.01
75551;BME280;65071;53.082;18.218;2022-12-13T14:27:25;100720.48;;;-0.99;67.32